Irondale, Washington
Current Conditions -  °F | °C
As of 4:56 AM on Friday 19 Dec 2014 (Local Time) from KNUW Reporting Station
Overcast Overcast  
Wind Chill: 50°   Ceiling: 3800
Heat Index: 50°   Visibility: 10mi
Dew Point: 44°   Wind: 13mph
Humidity: 80%   Direction: 160°SSE
Pressure: 29.78"   Gusts: NA
Location:  48.0288°N, 122.77°W
Report Text: KNUW 191256Z 16011KT 10SM SCT015 BKN038 OVC080 10/07 A2978 RMK AO2 RAB10E56 SLP088 P0001 T01000067 VISNO E $
Loading
Personal Weather Stations






























Interactive Weather Map New forecast layout! Learn more

10-Day Weather Forecast

Advertisements
Track Severe Weather on mobile